Pittsburgh, Pennsylvania
Traffic Map
Current Weather Conditions
Pittsburgh, Pennsylvania
Clear
Clear
53°
Feels Like: 53°
Wind Chill: 53° Ceiling: Unl
Heat Index: 53° Visibility: 10mi
Dew Point: 45° Wind: 5mph
Humidity: 74% Direction: 260° (W)
Pressure: 30.25in Gusts: 0mph
Raw Report DataKAGC 201053Z 26004KT 10SM CLR 12/07 A3025 RMK AO2 SLP248 T01170072
Traffic Incident Summary
Active as of:
Severity:
Category:
InformationThere was an issue retrieving the traffic information for this location. Please try a different location or try again shortly.
Advertisements